sensor_id;sensor_type;location;lat;lon;timestamp;P1;durP1;ratioP1;P2;durP2;ratioP2
17052;SDS011;8643;48.824;11.422;2022-09-09T00:00:40;4.50;;;3.15;;
17052;SDS011;8643;48.824;11.422;2022-09-09T00:03:17;4.63;;;3.08;;
17052;SDS011;8643;48.824;11.422;2022-09-09T00:05:55;4.72;;;3.05;;
17052;SDS011;8643;48.824;11.422;2022-09-09T00:08:37;4.72;;;3.15;;
17052;SDS011;8643;48.824;11.422;2022-09-09T00:11:14;4.32;;;3.03;;
17052;SDS011;8643;48.824;11.422;2022-09-09T00:13:57;9.10;;;3.25;;
17052;SDS011;8643;48.824;11.422;2022-09-09T00:16:31;8.90;;;3.10;;
17052;SDS011;8643;48.824;11.422;2022-09-09T00:19:12;7.05;;;3.58;;
17052;SDS011;8643;48.824;11.422;2022-09-09T00:21:52;5.82;;;3.05;;
17052;SDS011;8643;48.824;11.422;2022-09-09T00:24:41;5.50;;;3.47;;
17052;SDS011;8643;48.824;11.422;2022-09-09T00:27:16;3.85;;;3.20;;
17052;SDS011;8643;48.824;11.422;2022-09-09T00:29:56;4.82;;;3.85;;
17052;SDS011;8643;48.824;11.422;2022-09-09T00:32:40;5.03;;;4.03;;
17052;SDS011;8643;48.824;11.422;2022-09-09T00:35:14;5.93;;;3.90;;
17052;SDS011;8643;48.824;11.422;2022-09-09T00:37:50;6.47;;;4.45;;
17052;SDS011;8643;48.824;11.422;2022-09-09T00:40:25;7.05;;;3.60;;
17052;SDS011;8643;48.824;11.422;2022-09-09T00:43:12;7.60;;;4.05;;
17052;SDS011;8643;48.824;11.422;2022-09-09T00:46:06;7.35;;;4.10;;
17052;SDS011;8643;48.824;11.422;2022-09-09T00:49:12;4.53;;;3.90;;
17052;SDS011;8643;48.824;11.422;2022-09-09T00:51:55;5.30;;;4.25;;
17052;SDS011;8643;48.824;11.422;2022-09-09T00:54:46;5.93;;;4.22;;
17052;SDS011;8643;48.824;11.422;2022-09-09T00:57:25;6.05;;;4.25;;
17052;SDS011;8643;48.824;11.422;2022-09-09T01:00:15;7.70;;;4.72;;
17052;SDS011;8643;48.824;11.422;2022-09-09T01:05:51;7.10;;;5.95;;
17052;SDS011;8643;48.824;11.422;2022-09-09T01:08:42;7.40;;;5.82;;
17052;SDS011;8643;48.824;11.422;2022-09-09T01:11:37;10.35;;;5.35;;
17052;SDS011;8643;48.824;11.422;2022-09-09T01:14:24;7.97;;;5.78;;
17052;SDS011;8643;48.824;11.422;2022-09-09T01:17:08;8.07;;;5.28;;
17052;SDS011;8643;48.824;11.422;2022-09-09T01:20:01;8.70;;;4.97;;
17052;SDS011;8643;48.824;11.422;2022-09-09T01:22:49;6.78;;;5.07;;
17052;SDS011;8643;48.824;11.422;2022-09-09T01:26:02;9.82;;;5.50;;
17052;SDS011;8643;48.824;11.422;2022-09-09T01:28:48;7.07;;;5.00;;
17052;SDS011;8643;48.824;11.422;2022-09-09T01:31:26;6.93;;;5.07;;
17052;SDS011;8643;48.824;11.422;2022-09-09T01:33:59;8.57;;;5.47;;
17052;SDS011;8643;48.824;11.422;2022-09-09T01:36:29;7.50;;;4.97;;
17052;SDS011;8643;48.824;11.422;2022-09-09T01:39:10;5.40;;;4.90;;
17052;SDS011;8643;48.824;11.422;2022-09-09T01:41:43;5.53;;;4.70;;
17052;SDS011;8643;48.824;11.422;2022-09-09T01:44:12;6.18;;;4.60;;
17052;SDS011;8643;48.824;11.422;2022-09-09T01:46:43;7.63;;;4.32;;
17052;SDS011;8643;48.824;11.422;2022-09-09T01:49:17;5.10;;;4.18;;
17052;SDS011;8643;48.824;11.422;2022-09-09T01:51:47;9.15;;;4.40;;
17052;SDS011;8643;48.824;11.422;2022-09-09T01:54:24;7.00;;;3.83;;
17052;SDS011;8643;48.824;11.422;2022-09-09T01:57:05;9.55;;;4.90;;
17052;SDS011;8643;48.824;11.422;2022-09-09T01:59:48;6.47;;;3.95;;
17052;SDS011;8643;48.824;11.422;2022-09-09T02:02:41;5.60;;;4.43;;
17052;SDS011;8643;48.824;11.422;2022-09-09T02:05:33;7.43;;;3.58;;
17052;SDS011;8643;48.824;11.422;2022-09-09T02:08:11;5.22;;;3.70;;
17052;SDS011;8643;48.824;11.422;2022-09-09T02:10:55;8.32;;;3.97;;
17052;SDS011;8643;48.824;11.422;2022-09-09T02:13:43;8.43;;;4.93;;
17052;SDS011;8643;48.824;11.422;2022-09-09T02:16:16;5.10;;;4.50;;
17052;SDS011;8643;48.824;11.422;2022-09-09T02:18:53;8.45;;;4.80;;
17052;SDS011;8643;48.824;11.422;2022-09-09T02:21:41;8.07;;;4.82;;
17052;SDS011;8643;48.824;11.422;2022-09-09T02:24:13;7.35;;;4.68;;
17052;SDS011;8643;48.824;11.422;2022-09-09T02:26:52;5.28;;;4.55;;
17052;SDS011;8643;48.824;11.422;2022-09-09T02:29:26;5.75;;;4.53;;
17052;SDS011;8643;48.824;11.422;2022-09-09T02:32:01;6.28;;;4.10;;
17052;SDS011;8643;48.824;11.422;2022-09-09T02:34:38;5.25;;;4.60;;
17052;SDS011;8643;48.824;11.422;2022-09-09T02:37:11;5.05;;;4.28;;
17052;SDS011;8643;48.824;11.422;2022-09-09T02:39:46;7.82;;;4.72;;
17052;SDS011;8643;48.824;11.422;2022-09-09T02:42:18;6.30;;;4.85;;
17052;SDS011;8643;48.824;11.422;2022-09-09T02:44:51;6.63;;;4.95;;
17052;SDS011;8643;48.824;11.422;2022-09-09T02:47:23;5.88;;;4.40;;
17052;SDS011;8643;48.824;11.422;2022-09-09T02:50:08;7.10;;;4.43;;
17052;SDS011;8643;48.824;11.422;2022-09-09T02:52:45;6.60;;;4.38;;
17052;SDS011;8643;48.824;11.422;2022-09-09T02:55:28;5.20;;;3.83;;
17052;SDS011;8643;48.824;11.422;2022-09-09T02:58:09;8.60;;;4.43;;
17052;SDS011;8643;48.824;11.422;2022-09-09T03:00:52;6.63;;;4.70;;
17052;SDS011;8643;48.824;11.422;2022-09-09T03:03:21;5.22;;;4.55;;
17052;SDS011;8643;48.824;11.422;2022-09-09T03:05:51;6.97;;;5.20;;
17052;SDS011;8643;48.824;11.422;2022-09-09T03:08:19;5.10;;;4.47;;
17052;SDS011;8643;48.824;11.422;2022-09-09T03:10:48;5.95;;;4.32;;
17052;SDS011;8643;48.824;11.422;2022-09-09T03:13:17;6.20;;;4.82;;
17052;SDS011;8643;48.824;11.422;2022-09-09T03:15:47;6.60;;;4.43;;
17052;SDS011;8643;48.824;11.422;2022-09-09T03:18:20;6.30;;;4.43;;
17052;SDS011;8643;48.824;11.422;2022-09-09T03:20:52;5.35;;;4.05;;
17052;SDS011;8643;48.824;11.422;2022-09-09T03:23:21;5.35;;;4.30;;
17052;SDS011;8643;48.824;11.422;2022-09-09T03:25:50;5.65;;;4.10;;
17052;SDS011;8643;48.824;11.422;2022-09-09T03:28:29;8.88;;;4.55;;
17052;SDS011;8643;48.824;11.422;2022-09-09T03:31:00;6.10;;;4.57;;
17052;SDS011;8643;48.824;11.422;2022-09-09T03:33:35;6.93;;;4.20;;
17052;SDS011;8643;48.824;11.422;2022-09-09T03:36:05;9.18;;;4.85;;
17052;SDS011;8643;48.824;11.422;2022-09-09T03:38:37;9.13;;;4.40;;
17052;SDS011;8643;48.824;11.422;2022-09-09T03:41:06;8.07;;;4.60;;
17052;SDS011;8643;48.824;11.422;2022-09-09T03:43:36;5.45;;;3.80;;
17052;SDS011;8643;48.824;11.422;2022-09-09T03:46:04;5.95;;;4.00;;
17052;SDS011;8643;48.824;11.422;2022-09-09T03:48:33;7.07;;;4.40;;
17052;SDS011;8643;48.824;11.422;2022-09-09T03:51:04;10.80;;;4.40;;
17052;SDS011;8643;48.824;11.422;2022-09-09T03:53:34;8.82;;;4.30;;
17052;SDS011;8643;48.824;11.422;2022-09-09T03:56:03;5.75;;;4.65;;
17052;SDS011;8643;48.824;11.422;2022-09-09T03:58:33;8.13;;;4.45;;
17052;SDS011;8643;48.824;11.422;2022-09-09T04:01:07;6.78;;;4.95;;
17052;SDS011;8643;48.824;11.422;2022-09-09T04:03:41;7.80;;;4.50;;
17052;SDS011;8643;48.824;11.422;2022-09-09T04:06:11;5.97;;;4.43;;
17052;SDS011;8643;48.824;11.422;2022-09-09T04:08:44;5.75;;;4.63;;
17052;SDS011;8643;48.824;11.422;2022-09-09T04:11:15;8.30;;;4.30;;
17052;SDS011;8643;48.824;11.422;2022-09-09T04:13:45;7.07;;;3.90;;
17052;SDS011;8643;48.824;11.422;2022-09-09T04:16:14;7.43;;;4.00;;
17052;SDS011;8643;48.824;11.422;2022-09-09T04:18:43;10.05;;;4.72;;
17052;SDS011;8643;48.824;11.422;2022-09-09T04:21:14;8.32;;;4.20;;
17052;SDS011;8643;48.824;11.422;2022-09-09T04:23:44;9.90;;;4.38;;
17052;SDS011;8643;48.824;11.422;2022-09-09T04:26:12;5.07;;;4.20;;
17052;SDS011;8643;48.824;11.422;2022-09-09T04:28:43;5.57;;;4.28;;
17052;SDS011;8643;48.824;11.422;2022-09-09T04:31:17;5.90;;;3.90;;
17052;SDS011;8643;48.824;11.422;2022-09-09T04:33:52;5.97;;;4.15;;
17052;SDS011;8643;48.824;11.422;2022-09-09T04:36:22;7.25;;;4.70;;
17052;SDS011;8643;48.824;11.422;2022-09-09T04:38:56;8.55;;;4.25;;
17052;SDS011;8643;48.824;11.422;2022-09-09T04:41:24;5.13;;;4.28;;
17052;SDS011;8643;48.824;11.422;2022-09-09T04:43:54;7.55;;;5.30;;
17052;SDS011;8643;48.824;11.422;2022-09-09T04:46:22;7.82;;;5.00;;
17052;SDS011;8643;48.824;11.422;2022-09-09T04:48:51;9.23;;;5.13;;
17052;SDS011;8643;48.824;11.422;2022-09-09T04:51:26;5.45;;;4.45;;
17052;SDS011;8643;48.824;11.422;2022-09-09T04:53:55;6.30;;;5.05;;
17052;SDS011;8643;48.824;11.422;2022-09-09T04:56:23;6.57;;;4.93;;
17052;SDS011;8643;48.824;11.422;2022-09-09T04:58:56;6.03;;;4.90;;
17052;SDS011;8643;48.824;11.422;2022-09-09T05:01:45;7.85;;;5.10;;
17052;SDS011;8643;48.824;11.422;2022-09-09T05:04:14;6.32;;;4.90;;
17052;SDS011;8643;48.824;11.422;2022-09-09T05:06:44;6.05;;;4.90;;
17052;SDS011;8643;48.824;11.422;2022-09-09T05:09:12;7.80;;;5.40;;
17052;SDS011;8643;48.824;11.422;2022-09-09T05:11:42;10.43;;;5.97;;
17052;SDS011;8643;48.824;11.422;2022-09-09T05:14:25;6.57;;;4.88;;
17052;SDS011;8643;48.824;11.422;2022-09-09T05:16:54;7.13;;;5.15;;
17052;SDS011;8643;48.824;11.422;2022-09-09T05:19:23;7.22;;;5.70;;
17052;SDS011;8643;48.824;11.422;2022-09-09T05:21:54;8.10;;;5.63;;
17052;SDS011;8643;48.824;11.422;2022-09-09T05:24:31;8.50;;;5.50;;
17052;SDS011;8643;48.824;11.422;2022-09-09T05:27:01;8.43;;;5.47;;
17052;SDS011;8643;48.824;11.422;2022-09-09T05:29:31;7.30;;;6.10;;
17052;SDS011;8643;48.824;11.422;2022-09-09T05:32:03;9.65;;;5.80;;
17052;SDS011;8643;48.824;11.422;2022-09-09T05:34:34;11.38;;;5.80;;
17052;SDS011;8643;48.824;11.422;2022-09-09T05:37:05;9.60;;;5.75;;
17052;SDS011;8643;48.824;11.422;2022-09-09T05:39:35;10.65;;;5.32;;
17052;SDS011;8643;48.824;11.422;2022-09-09T05:42:05;7.03;;;5.60;;
17052;SDS011;8643;48.824;11.422;2022-09-09T05:44:33;10.32;;;5.78;;
17052;SDS011;8643;48.824;11.422;2022-09-09T05:47:01;7.80;;;5.93;;
17052;SDS011;8643;48.824;11.422;2022-09-09T05:49:30;9.77;;;5.25;;
17052;SDS011;8643;48.824;11.422;2022-09-09T05:51:58;10.95;;;5.47;;
17052;SDS011;8643;48.824;11.422;2022-09-09T05:54:29;7.40;;;5.22;;
17052;SDS011;8643;48.824;11.422;2022-09-09T05:56:58;6.63;;;5.20;;
17052;SDS011;8643;48.824;11.422;2022-09-09T05:59:27;12.02;;;5.57;;
17052;SDS011;8643;48.824;11.422;2022-09-09T06:01:56;6.72;;;5.60;;
17052;SDS011;8643;48.824;11.422;2022-09-09T06:04:31;6.65;;;5.40;;
17052;SDS011;8643;48.824;11.422;2022-09-09T06:07:00;6.05;;;4.88;;
17052;SDS011;8643;48.824;11.422;2022-09-09T06:09:30;8.23;;;4.82;;
17052;SDS011;8643;48.824;11.422;2022-09-09T06:11:59;5.93;;;4.20;;
17052;SDS011;8643;48.824;11.422;2022-09-09T06:14:30;5.18;;;4.18;;
17052;SDS011;8643;48.824;11.422;2022-09-09T06:16:59;6.03;;;4.63;;
17052;SDS011;8643;48.824;11.422;2022-09-09T06:19:29;5.40;;;4.18;;
17052;SDS011;8643;48.824;11.422;2022-09-09T06:21:59;5.80;;;3.90;;
17052;SDS011;8643;48.824;11.422;2022-09-09T06:24:31;7.38;;;4.03;;
17052;SDS011;8643;48.824;11.422;2022-09-09T06:27:01;8.38;;;4.05;;
17052;SDS011;8643;48.824;11.422;2022-09-09T06:29:33;5.05;;;3.67;;
17052;SDS011;8643;48.824;11.422;2022-09-09T06:32:01;6.40;;;4.05;;
17052;SDS011;8643;48.824;11.422;2022-09-09T06:34:30;8.07;;;4.55;;
17052;SDS011;8643;48.824;11.422;2022-09-09T06:36:59;8.77;;;4.88;;
17052;SDS011;8643;48.824;11.422;2022-09-09T06:39:36;11.30;;;4.90;;
17052;SDS011;8643;48.824;11.422;2022-09-09T06:42:05;9.48;;;5.40;;
17052;SDS011;8643;48.824;11.422;2022-09-09T06:45:04;7.68;;;4.80;;
17052;SDS011;8643;48.824;11.422;2022-09-09T06:47:42;11.43;;;5.70;;
17052;SDS011;8643;48.824;11.422;2022-09-09T06:50:10;7.40;;;6.07;;
17052;SDS011;8643;48.824;11.422;2022-09-09T06:52:39;10.25;;;6.50;;
17052;SDS011;8643;48.824;11.422;2022-09-09T06:55:10;10.52;;;6.72;;
17052;SDS011;8643;48.824;11.422;2022-09-09T06:57:40;11.32;;;7.35;;
17052;SDS011;8643;48.824;11.422;2022-09-09T07:00:13;9.73;;;7.13;;
17052;SDS011;8643;48.824;11.422;2022-09-09T07:02:43;10.27;;;7.25;;
17052;SDS011;8643;48.824;11.422;2022-09-09T07:05:12;8.73;;;7.10;;
17052;SDS011;8643;48.824;11.422;2022-09-09T07:07:43;12.13;;;7.07;;
17052;SDS011;8643;48.824;11.422;2022-09-09T07:10:16;11.10;;;7.30;;
17052;SDS011;8643;48.824;11.422;2022-09-09T07:12:44;12.13;;;6.72;;
17052;SDS011;8643;48.824;11.422;2022-09-09T07:15:21;11.30;;;7.15;;
17052;SDS011;8643;48.824;11.422;2022-09-09T07:17:49;11.43;;;6.88;;
17052;SDS011;8643;48.824;11.422;2022-09-09T07:20:20;13.18;;;7.75;;
17052;SDS011;8643;48.824;11.422;2022-09-09T07:22:49;11.50;;;7.43;;
17052;SDS011;8643;48.824;11.422;2022-09-09T07:25:23;11.82;;;7.45;;
17052;SDS011;8643;48.824;11.422;2022-09-09T07:27:53;11.75;;;6.93;;
17052;SDS011;8643;48.824;11.422;2022-09-09T07:30:21;12.95;;;7.47;;
17052;SDS011;8643;48.824;11.422;2022-09-09T07:32:54;11.93;;;7.22;;
17052;SDS011;8643;48.824;11.422;2022-09-09T07:35:24;9.07;;;6.95;;
17052;SDS011;8643;48.824;11.422;2022-09-09T07:37:53;9.55;;;6.95;;
17052;SDS011;8643;48.824;11.422;2022-09-09T07:40:24;12.68;;;7.90;;
17052;SDS011;8643;48.824;11.422;2022-09-09T07:42:52;10.93;;;7.93;;
17052;SDS011;8643;48.824;11.422;2022-09-09T07:45:21;9.75;;;6.80;;
17052;SDS011;8643;48.824;11.422;2022-09-09T07:47:50;15.18;;;7.88;;
17052;SDS011;8643;48.824;11.422;2022-09-09T07:50:19;11.90;;;7.53;;
17052;SDS011;8643;48.824;11.422;2022-09-09T07:52:48;10.25;;;7.18;;
17052;SDS011;8643;48.824;11.422;2022-09-09T07:55:17;10.75;;;6.32;;
17052;SDS011;8643;48.824;11.422;2022-09-09T07:57:47;8.27;;;5.68;;
17052;SDS011;8643;48.824;11.422;2022-09-09T08:00:15;11.43;;;6.28;;
17052;SDS011;8643;48.824;11.422;2022-09-09T08:02:50;9.52;;;5.88;;
17052;SDS011;8643;48.824;11.422;2022-09-09T08:05:21;8.48;;;6.18;;
17052;SDS011;8643;48.824;11.422;2022-09-09T08:07:50;8.95;;;5.60;;
17052;SDS011;8643;48.824;11.422;2022-09-09T08:10:18;10.63;;;4.97;;
17052;SDS011;8643;48.824;11.422;2022-09-09T08:12:50;10.45;;;4.80;;
17052;SDS011;8643;48.824;11.422;2022-09-09T08:15:38;7.88;;;5.15;;
17052;SDS011;8643;48.824;11.422;2022-09-09T08:18:08;11.38;;;5.68;;
17052;SDS011;8643;48.824;11.422;2022-09-09T08:20:37;9.57;;;5.40;;
17052;SDS011;8643;48.824;11.422;2022-09-09T08:23:05;7.68;;;4.63;;
17052;SDS011;8643;48.824;11.422;2022-09-09T08:25:34;8.75;;;5.05;;
17052;SDS011;8643;48.824;11.422;2022-09-09T08:28:05;7.10;;;4.90;;
17052;SDS011;8643;48.824;11.422;2022-09-09T08:30:34;10.38;;;5.28;;
17052;SDS011;8643;48.824;11.422;2022-09-09T08:33:02;11.38;;;5.75;;
17052;SDS011;8643;48.824;11.422;2022-09-09T08:35:31;6.72;;;5.03;;
17052;SDS011;8643;48.824;11.422;2022-09-09T08:38:01;10.35;;;5.82;;
17052;SDS011;8643;48.824;11.422;2022-09-09T08:40:36;7.85;;;4.78;;
17052;SDS011;8643;48.824;11.422;2022-09-09T08:43:16;6.97;;;3.40;;
17052;SDS011;8643;48.824;11.422;2022-09-09T08:45:50;5.13;;;2.92;;
17052;SDS011;8643;48.824;11.422;2022-09-09T08:48:41;4.70;;;2.63;;
17052;SDS011;8643;48.824;11.422;2022-09-09T08:51:21;6.60;;;2.40;;
17052;SDS011;8643;48.824;11.422;2022-09-09T08:53:55;5.22;;;2.40;;
17052;SDS011;8643;48.824;11.422;2022-09-09T08:56:31;4.55;;;2.05;;
17052;SDS011;8643;48.824;11.422;2022-09-09T08:59:03;3.90;;;1.77;;
17052;SDS011;8643;48.824;11.422;2022-09-09T09:01:50;3.95;;;1.70;;
17052;SDS011;8643;48.824;11.422;2022-09-09T09:04:38;5.30;;;2.00;;
17052;SDS011;8643;48.824;11.422;2022-09-09T09:07:33;6.47;;;1.98;;
17052;SDS011;8643;48.824;11.422;2022-09-09T09:10:31;3.83;;;1.83;;
17052;SDS011;8643;48.824;11.422;2022-09-09T09:13:17;4.00;;;2.20;;
17052;SDS011;8643;48.824;11.422;2022-09-09T09:15:58;5.03;;;2.40;;
17052;SDS011;8643;48.824;11.422;2022-09-09T09:18:39;5.25;;;2.50;;
17052;SDS011;8643;48.824;11.422;2022-09-09T09:21:10;5.70;;;2.42;;
17052;SDS011;8643;48.824;11.422;2022-09-09T09:23:48;2.70;;;1.95;;
17052;SDS011;8643;48.824;11.422;2022-09-09T09:26:26;3.47;;;2.10;;
17052;SDS011;8643;48.824;11.422;2022-09-09T09:28:59;4.40;;;1.90;;
17052;SDS011;8643;48.824;11.422;2022-09-09T09:31:42;3.15;;;1.60;;
17052;SDS011;8643;48.824;11.422;2022-09-09T09:34:14;4.43;;;1.60;;
17052;SDS011;8643;48.824;11.422;2022-09-09T09:36:46;3.10;;;1.58;;
17052;SDS011;8643;48.824;11.422;2022-09-09T09:39:24;7.65;;;1.50;;
17052;SDS011;8643;48.824;11.422;2022-09-09T09:42:16;4.90;;;1.25;;
17052;SDS011;8643;48.824;11.422;2022-09-09T09:44:51;3.17;;;0.95;;
17052;SDS011;8643;48.824;11.422;2022-09-09T09:47:22;3.92;;;1.10;;
17052;SDS011;8643;48.824;11.422;2022-09-09T09:50:01;4.72;;;1.15;;
17052;SDS011;8643;48.824;11.422;2022-09-09T09:52:35;1.58;;;0.90;;
17052;SDS011;8643;48.824;11.422;2022-09-09T09:55:11;2.42;;;1.00;;
17052;SDS011;8643;48.824;11.422;2022-09-09T09:57:44;3.05;;;1.23;;
17052;SDS011;8643;48.824;11.422;2022-09-09T10:00:14;2.35;;;1.00;;
17052;SDS011;8643;48.824;11.422;2022-09-09T10:02:56;1.00;;;0.60;;
17052;SDS011;8643;48.824;11.422;2022-09-09T10:05:28;1.75;;;0.70;;
17052;SDS011;8643;48.824;11.422;2022-09-09T10:08:09;3.67;;;0.80;;
17052;SDS011;8643;48.824;11.422;2022-09-09T10:10:42;1.52;;;0.70;;
17052;SDS011;8643;48.824;11.422;2022-09-09T10:13:29;2.90;;;0.60;;
17052;SDS011;8643;48.824;11.422;2022-09-09T10:16:16;1.85;;;0.80;;
17052;SDS011;8643;48.824;11.422;2022-09-09T10:19:04;2.65;;;0.80;;
17052;SDS011;8643;48.824;11.422;2022-09-09T10:24:51;3.47;;;0.80;;
17052;SDS011;8643;48.824;11.422;2022-09-09T10:28:02;2.35;;;0.88;;
17052;SDS011;8643;48.824;11.422;2022-09-09T10:30:53;1.90;;;0.80;;
17052;SDS011;8643;48.824;11.422;2022-09-09T10:33:37;2.58;;;0.80;;
17052;SDS011;8643;48.824;11.422;2022-09-09T10:36:19;3.80;;;0.85;;
17052;SDS011;8643;48.824;11.422;2022-09-09T10:38:52;1.88;;;0.90;;
17052;SDS011;8643;48.824;11.422;2022-09-09T10:41:33;3.75;;;0.75;;
17052;SDS011;8643;48.824;11.422;2022-09-09T10:44:26;3.78;;;0.90;;
17052;SDS011;8643;48.824;11.422;2022-09-09T10:47:21;2.55;;;1.05;;
17052;SDS011;8643;48.824;11.422;2022-09-09T10:50:24;2.30;;;0.90;;
17052;SDS011;8643;48.824;11.422;2022-09-09T10:53:39;2.58;;;1.02;;
17052;SDS011;8643;48.824;11.422;2022-09-09T10:56:21;1.67;;;0.90;;
17052;SDS011;8643;48.824;11.422;2022-09-09T10:58:53;2.92;;;1.02;;
17052;SDS011;8643;48.824;11.422;2022-09-09T11:01:28;2.47;;;0.88;;
17052;SDS011;8643;48.824;11.422;2022-09-09T11:04:05;1.80;;;1.00;;
17052;SDS011;8643;48.824;11.422;2022-09-09T11:06:46;1.92;;;1.20;;
17052;SDS011;8643;48.824;11.422;2022-09-09T11:09:23;3.20;;;1.00;;
17052;SDS011;8643;48.824;11.422;2022-09-09T11:11:59;3.13;;;1.10;;
17052;SDS011;8643;48.824;11.422;2022-09-09T11:14:29;2.63;;;1.10;;
17052;SDS011;8643;48.824;11.422;2022-09-09T11:17:08;4.25;;;0.98;;
17052;SDS011;8643;48.824;11.422;2022-09-09T11:19:43;2.05;;;1.10;;
17052;SDS011;8643;48.824;11.422;2022-09-09T11:22:15;2.72;;;1.30;;
17052;SDS011;8643;48.824;11.422;2022-09-09T11:24:56;1.80;;;1.10;;
17052;SDS011;8643;48.824;11.422;2022-09-09T11:27:31;3.90;;;1.10;;
17052;SDS011;8643;48.824;11.422;2022-09-09T11:30:18;4.93;;;1.30;;
17052;SDS011;8643;48.824;11.422;2022-09-09T11:33:23;3.38;;;0.90;;
17052;SDS011;8643;48.824;11.422;2022-09-09T11:36:16;2.58;;;1.10;;
17052;SDS011;8643;48.824;11.422;2022-09-09T11:39:10;2.30;;;1.00;;
17052;SDS011;8643;48.824;11.422;2022-09-09T11:42:12;3.08;;;1.30;;
17052;SDS011;8643;48.824;11.422;2022-09-09T11:44:46;5.03;;;1.20;;
17052;SDS011;8643;48.824;11.422;2022-09-09T11:47:22;3.08;;;1.30;;
17052;SDS011;8643;48.824;11.422;2022-09-09T11:50:06;1.75;;;1.23;;
17052;SDS011;8643;48.824;11.422;2022-09-09T11:53:15;2.88;;;1.20;;
17052;SDS011;8643;48.824;11.422;2022-09-09T11:56:02;3.35;;;1.10;;
17052;SDS011;8643;48.824;11.422;2022-09-09T11:58:38;3.47;;;1.25;;
17052;SDS011;8643;48.824;11.422;2022-09-09T12:01:13;3.45;;;1.30;;
17052;SDS011;8643;48.824;11.422;2022-09-09T12:07:21;4.00;;;1.05;;
17052;SDS011;8643;48.824;11.422;2022-09-09T12:10:02;3.63;;;1.15;;
17052;SDS011;8643;48.824;11.422;2022-09-09T12:12:48;3.33;;;1.30;;
17052;SDS011;8643;48.824;11.422;2022-09-09T12:15:22;3.17;;;1.33;;
17052;SDS011;8643;48.824;11.422;2022-09-09T12:17:56;3.10;;;1.42;;
17052;SDS011;8643;48.824;11.422;2022-09-09T12:20:31;3.92;;;1.52;;
17052;SDS011;8643;48.824;11.422;2022-09-09T12:23:13;2.88;;;1.30;;
17052;SDS011;8643;48.824;11.422;2022-09-09T12:26:00;3.15;;;1.58;;
17052;SDS011;8643;48.824;11.422;2022-09-09T12:28:56;3.25;;;1.40;;
17052;SDS011;8643;48.824;11.422;2022-09-09T12:31:41;4.35;;;1.30;;
17052;SDS011;8643;48.824;11.422;2022-09-09T12:34:23;4.28;;;1.58;;
17052;SDS011;8643;48.824;11.422;2022-09-09T12:37:06;3.97;;;1.45;;
17052;SDS011;8643;48.824;11.422;2022-09-09T12:39:47;3.10;;;1.35;;
17052;SDS011;8643;48.824;11.422;2022-09-09T12:42:22;3.22;;;1.15;;
17052;SDS011;8643;48.824;11.422;2022-09-09T12:44:52;3.45;;;1.30;;
17052;SDS011;8643;48.824;11.422;2022-09-09T12:47:26;4.38;;;1.20;;
17052;SDS011;8643;48.824;11.422;2022-09-09T12:50:14;2.63;;;1.10;;
17052;SDS011;8643;48.824;11.422;2022-09-09T12:52:47;3.22;;;1.20;;
17052;SDS011;8643;48.824;11.422;2022-09-09T12:55:18;6.35;;;1.50;;
17052;SDS011;8643;48.824;11.422;2022-09-09T12:57:51;3.95;;;1.50;;
17052;SDS011;8643;48.824;11.422;2022-09-09T13:00:21;4.97;;;1.45;;
17052;SDS011;8643;48.824;11.422;2022-09-09T13:02:53;2.92;;;1.60;;
17052;SDS011;8643;48.824;11.422;2022-09-09T13:05:26;4.18;;;1.40;;
17052;SDS011;8643;48.824;11.422;2022-09-09T13:08:00;4.22;;;1.42;;
17052;SDS011;8643;48.824;11.422;2022-09-09T13:10:30;4.43;;;1.58;;
17052;SDS011;8643;48.824;11.422;2022-09-09T13:13:20;3.10;;;1.48;;
17052;SDS011;8643;48.824;11.422;2022-09-09T13:15:52;4.93;;;1.55;;
17052;SDS011;8643;48.824;11.422;2022-09-09T13:18:26;3.10;;;1.30;;
17052;SDS011;8643;48.824;11.422;2022-09-09T13:20:59;3.75;;;1.52;;
17052;SDS011;8643;48.824;11.422;2022-09-09T13:23:29;3.35;;;1.30;;
17052;SDS011;8643;48.824;11.422;2022-09-09T13:26:03;2.63;;;1.10;;
17052;SDS011;8643;48.824;11.422;2022-09-09T13:28:34;3.95;;;1.35;;
17052;SDS011;8643;48.824;11.422;2022-09-09T13:31:03;4.78;;;1.40;;
17052;SDS011;8643;48.824;11.422;2022-09-09T13:33:48;3.38;;;1.30;;
17052;SDS011;8643;48.824;11.422;2022-09-09T13:36:16;2.15;;;1.13;;
17052;SDS011;8643;48.824;11.422;2022-09-09T13:38:58;5.80;;;1.38;;
17052;SDS011;8643;48.824;11.422;2022-09-09T13:41:31;1.77;;;0.98;;
17052;SDS011;8643;48.824;11.422;2022-09-09T13:44:02;2.40;;;1.10;;
17052;SDS011;8643;48.824;11.422;2022-09-09T13:46:33;3.42;;;1.10;;
17052;SDS011;8643;48.824;11.422;2022-09-09T13:49:19;5.05;;;1.10;;
17052;SDS011;8643;48.824;11.422;2022-09-09T13:51:50;4.03;;;1.17;;
17052;SDS011;8643;48.824;11.422;2022-09-09T13:54:31;3.58;;;1.10;;
17052;SDS011;8643;48.824;11.422;2022-09-09T13:56:59;2.53;;;0.80;;
17052;SDS011;8643;48.824;11.422;2022-09-09T13:59:28;3.00;;;1.35;;
17052;SDS011;8643;48.824;11.422;2022-09-09T14:02:18;2.47;;;1.05;;
17052;SDS011;8643;48.824;11.422;2022-09-09T14:04:49;3.70;;;1.10;;
17052;SDS011;8643;48.824;11.422;2022-09-09T14:07:21;3.15;;;1.10;;
17052;SDS011;8643;48.824;11.422;2022-09-09T14:09:49;1.95;;;0.93;;
17052;SDS011;8643;48.824;11.422;2022-09-09T14:12:18;1.95;;;0.90;;
17052;SDS011;8643;48.824;11.422;2022-09-09T14:14:47;3.85;;;1.20;;
17052;SDS011;8643;48.824;11.422;2022-09-09T14:17:16;2.65;;;1.02;;
17052;SDS011;8643;48.824;11.422;2022-09-09T14:19:44;2.13;;;1.08;;
17052;SDS011;8643;48.824;11.422;2022-09-09T14:22:13;3.72;;;1.40;;
17052;SDS011;8643;48.824;11.422;2022-09-09T14:24:42;5.25;;;1.35;;
17052;SDS011;8643;48.824;11.422;2022-09-09T14:27:10;5.22;;;1.27;;
17052;SDS011;8643;48.824;11.422;2022-09-09T14:29:38;3.20;;;1.20;;
17052;SDS011;8643;48.824;11.422;2022-09-09T14:32:07;2.55;;;1.08;;
17052;SDS011;8643;48.824;11.422;2022-09-09T14:34:38;3.25;;;1.15;;
17052;SDS011;8643;48.824;11.422;2022-09-09T14:37:07;3.42;;;1.17;;
17052;SDS011;8643;48.824;11.422;2022-09-09T14:39:36;4.30;;;1.10;;
17052;SDS011;8643;48.824;11.422;2022-09-09T14:42:05;6.53;;;1.25;;
17052;SDS011;8643;48.824;11.422;2022-09-09T14:44:34;3.60;;;1.10;;
17052;SDS011;8643;48.824;11.422;2022-09-09T14:47:04;3.97;;;1.00;;
17052;SDS011;8643;48.824;11.422;2022-09-09T14:49:34;3.92;;;1.00;;
17052;SDS011;8643;48.824;11.422;2022-09-09T14:52:05;5.78;;;1.50;;
17052;SDS011;8643;48.824;11.422;2022-09-09T14:54:37;1.73;;;1.10;;
17052;SDS011;8643;48.824;11.422;2022-09-09T14:57:05;3.33;;;0.93;;
17052;SDS011;8643;48.824;11.422;2022-09-09T14:59:33;2.65;;;0.90;;
17052;SDS011;8643;48.824;11.422;2022-09-09T15:02:02;5.18;;;1.13;;
17052;SDS011;8643;48.824;11.422;2022-09-09T15:04:31;2.80;;;1.23;;
17052;SDS011;8643;48.824;11.422;2022-09-09T15:06:59;5.22;;;1.20;;
17052;SDS011;8643;48.824;11.422;2022-09-09T15:09:28;4.43;;;1.40;;
17052;SDS011;8643;48.824;11.422;2022-09-09T15:11:58;1.98;;;0.88;;
17052;SDS011;8643;48.824;11.422;2022-09-09T15:14:27;4.10;;;1.15;;
17052;SDS011;8643;48.824;11.422;2022-09-09T15:16:55;4.10;;;1.20;;
17052;SDS011;8643;48.824;11.422;2022-09-09T15:19:24;5.47;;;1.20;;
17052;SDS011;8643;48.824;11.422;2022-09-09T15:21:52;4.28;;;1.05;;
17052;SDS011;8643;48.824;11.422;2022-09-09T15:24:21;6.35;;;1.08;;
17052;SDS011;8643;48.824;11.422;2022-09-09T15:26:51;3.33;;;1.20;;
17052;SDS011;8643;48.824;11.422;2022-09-09T15:29:21;4.15;;;1.10;;
17052;SDS011;8643;48.824;11.422;2022-09-09T15:31:49;2.03;;;1.08;;
17052;SDS011;8643;48.824;11.422;2022-09-09T15:34:17;4.03;;;1.00;;
17052;SDS011;8643;48.824;11.422;2022-09-09T15:36:46;4.50;;;1.33;;
17052;SDS011;8643;48.824;11.422;2022-09-09T15:39:15;2.33;;;1.10;;
17052;SDS011;8643;48.824;11.422;2022-09-09T15:41:46;2.22;;;0.90;;
17052;SDS011;8643;48.824;11.422;2022-09-09T15:44:15;4.38;;;1.10;;